Time;durP1;ratioP1;P1;durP2;ratioP2;P2;SDS_P1;SDS_P2;PMS_P1;PMS_P2;Temp;Humidity;BMP_temperature;BMP_pressure;BME280_temperature;BME280_humidity;BME280_pressure;Samples;Min_cycle;Max_cycle;Signal;HPM_P1;HPM_P2
2022/05/22 00:00:22;;;;;;;10.32;3.75;;;;;;;18.30;100.00;94429.28;5042856;28;20032;-87
2022/05/22 00:02:48;;;;;;;7.13;3.35;;;;;;;18.29;100.00;94427.72;5059652;28;20029;-88
2022/05/22 00:05:18;;;;;;;8.27;2.83;;;;;;;18.43;100.00;94426.72;5042778;28;20035;-87
2022/05/22 00:07:46;;;;;;;9.52;3.00;;;;;;;18.27;100.00;94419.25;5042852;28;20031;-87
2022/05/22 00:10:13;;;;;;;13.00;3.38;;;;;;;18.33;100.00;94412.72;5058966;28;20024;-88
2022/05/22 00:12:40;;;;;;;7.18;3.20;;;;;;;18.29;100.00;94418.97;5058951;28;20029;-88
2022/05/22 00:15:06;;;;;;;10.55;3.28;;;;;;;18.00;100.00;94412.41;5042403;28;20031;-88
2022/05/22 00:17:31;;;;;;;10.77;3.35;;;;;;;17.79;100.00;94413.06;5042745;28;20123;-88
2022/05/22 00:19:57;;;;;;;7.70;3.28;;;;;;;18.02;100.00;94407.56;5058867;28;20111;-87
2022/05/22 00:22:23;;;;;;;10.43;3.53;;;;;;;18.03;100.00;94415.25;5042434;28;20468;-87
2022/05/22 00:24:48;;;;;;;12.38;3.40;;;;;;;17.57;100.00;94411.31;5058828;28;20021;-87
2022/05/22 00:27:16;;;;;;;7.60;2.72;;;;;;;17.93;100.00;94410.25;5076600;28;20028;-87
2022/05/22 00:29:41;;;;;;;11.23;3.58;;;;;;;17.76;100.00;94409.16;5059105;28;20020;-87
2022/05/22 00:32:08;;;;;;;13.45;3.97;;;;;;;17.80;100.00;94407.44;5058787;28;20387;-87
2022/05/22 00:34:34;;;;;;;12.48;4.28;;;;;;;17.75;100.00;94398.84;5042318;28;20024;-87
2022/05/22 00:37:00;;;;;;;9.65;4.05;;;;;;;17.78;100.00;94404.31;5042056;28;20036;-87
2022/05/22 00:39:25;;;;;;;9.75;3.25;;;;;;;17.72;100.00;94396.84;5058723;28;20025;-87
2022/05/22 00:41:56;;;;;;;8.95;3.53;;;;;;;17.83;100.00;94390.13;5059811;28;20032;-87
2022/05/22 00:44:21;;;;;;;6.95;3.40;;;;;;;17.98;100.00;94393.41;5045744;28;20020;-87
2022/05/22 00:46:47;;;;;;;10.50;4.18;;;;;;;18.01;100.00;94390.91;5062257;28;20345;-88
2022/05/22 00:49:27;;;;;;;15.25;4.45;;;;;;;17.95;100.00;94392.16;5046010;28;20098;-87
2022/05/22 00:52:00;;;;;;;12.93;3.75;;;;;;;17.92;100.00;94388.25;5045951;28;20115;-87
2022/05/22 00:54:36;;;;;;;11.85;3.88;;;;;;;17.84;100.00;94388.25;5045873;28;20452;-87
2022/05/22 00:57:14;;;;;;;10.90;3.75;;;;;;;18.03;100.00;94393.25;5045891;28;20119;-88
2022/05/22 00:59:46;;;;;;;5.13;3.22;;;;;;;17.91;100.00;94385.94;5079756;28;20516;-88
2022/05/22 01:02:15;;;;;;;7.03;3.08;;;;;;;17.91;100.00;94380.63;5062404;28;20028;-87
2022/05/22 01:04:42;;;;;;;8.20;3.10;;;;;;;17.87;100.00;94379.69;5062560;28;20025;-87
2022/05/22 01:07:08;;;;;;;8.98;3.53;;;;;;;17.91;100.00;94383.28;5045815;28;20126;-87
2022/05/22 01:09:36;;;;;;;13.77;3.25;;;;;;;17.67;100.00;94376.56;5062164;28;20052;-88
2022/05/22 01:12:09;;;;;;;14.68;3.40;;;;;;;17.34;100.00;94369.09;5044952;28;20071;-89
2022/05/22 01:14:35;;;;;;;9.05;3.28;;;;;;;17.27;100.00;94381.97;5061641;28;20032;-88
2022/05/22 01:17:07;;;;;;;6.13;2.97;;;;;;;17.44;100.00;94373.28;5045517;28;20032;-88
2022/05/22 01:19:32;;;;;;;9.00;3.22;;;;;;;17.59;100.00;94374.72;5045361;28;20089;-88
2022/05/22 01:22:03;;;;;;;8.02;3.30;;;;;;;17.56;100.00;94375.31;5062129;28;20116;-87
2022/05/22 01:24:29;;;;;;;5.30;2.78;;;;;;;17.77;100.00;94375.47;5061750;28;20127;-87
2022/05/22 01:27:00;;;;;;;4.82;2.47;;;;;;;17.81;100.00;94376.44;5045367;28;20146;-87
2022/05/22 01:29:25;;;;;;;10.55;3.13;;;;;;;17.75;100.00;94378.44;5045220;28;20127;-88
2022/05/22 01:31:51;;;;;;;9.88;2.97;;;;;;;17.78;100.00;94371.72;5045266;28;20115;-88
2022/05/22 01:34:16;;;;;;;9.38;2.58;;;;;;;17.90;100.00;94382.47;5045121;28;20029;-88
2022/05/22 01:36:42;;;;;;;9.05;3.00;;;;;;;17.98;100.00;94383.56;5062086;28;20033;-87
2022/05/22 01:39:08;;;;;;;11.05;3.55;;;;;;;17.74;100.00;94373.44;5061631;28;20052;-88
2022/05/22 01:41:33;;;;;;;15.57;4.10;;;;;;;17.50;100.00;94370.19;5079335;28;20035;-88
2022/05/22 01:43:59;;;;;;;13.50;3.45;;;;;;;17.51;100.00;94371.75;5061370;28;20036;-87
2022/05/22 01:46:24;;;;;;;8.20;3.10;;;;;;;17.65;100.00;94370.81;5045099;28;20099;-88
2022/05/22 01:48:52;;;;;;;10.07;3.15;;;;;;;17.65;100.00;94373.47;5045178;28;20039;-88
2022/05/22 01:51:18;;;;;;;10.57;3.20;;;;;;;17.70;100.00;94370.63;5061690;28;20029;-87
2022/05/22 01:53:43;;;;;;;8.10;3.60;;;;;;;17.46;100.00;94360.50;5044442;28;20028;-87
2022/05/22 01:56:09;;;;;;;6.68;2.83;;;;;;;17.67;100.00;94361.47;5044651;28;20032;-88
2022/05/22 01:58:34;;;;;;;7.65;2.88;;;;;;;17.58;100.00;94363.31;5044945;28;20033;-88
2022/05/22 02:01:00;;;;;;;9.50;2.70;;;;;;;17.63;100.00;94365.81;5044676;28;20032;-87
2022/05/22 02:03:25;;;;;;;6.95;2.65;;;;;;;17.29;100.00;94354.13;5060738;28;20085;-88
2022/05/22 02:05:51;;;;;;;7.18;2.53;;;;;;;17.45;100.00;94361.59;5044559;28;20067;-88
2022/05/22 02:08:22;;;;;;;10.63;2.70;;;;;;;17.55;100.00;94357.88;5044491;28;20033;-88
2022/05/22 02:10:51;;;;;;;8.07;2.08;;;;;;;17.65;100.00;94355.72;5045583;28;20068;-88
2022/05/22 02:13:20;;;;;;;4.88;1.95;;;;;;;17.84;100.00;94359.09;5044404;28;20024;-88
2022/05/22 02:15:49;;;;;;;6.18;2.00;;;;;;;17.87;100.00;94356.59;5078811;28;20349;-88
2022/05/22 02:18:15;;;;;;;4.07;2.25;;;;;;;17.81;100.00;94353.34;5062999;28;20036;-88
2022/05/22 02:20:48;;;;;;;9.95;2.63;;;;;;;17.64;100.00;94356.78;5024565;28;20033;-89
2022/05/22 02:23:34;;;;;;;8.23;2.17;;;;;;;17.78;100.00;94348.66;5043304;28;20040;-88
2022/05/22 02:26:00;;;;;;;6.85;2.03;;;;;;;17.83;100.00;94350.38;5025386;28;20039;-87
2022/05/22 02:28:39;;;;;;;;;;;;;;;;;;;;;
2022/05/22 02:31:07;;;;;;;8.18;2.30;;;;;;;17.97;100.00;94346.78;5042614;28;20025;-87
2022/05/22 02:33:59;;;;;;;6.70;2.13;;;;;;;17.95;100.00;94341.78;5024204;28;20377;-88
2022/05/22 02:36:25;;;;;;;7.43;2.38;;;;;;;17.80;100.00;94335.13;5040425;28;20393;-88
2022/05/22 02:38:50;;;;;;;6.03;2.22;;;;;;;17.81;100.00;94339.31;5058309;28;20051;-88
2022/05/22 02:41:17;;;;;;;5.53;2.60;;;;;;;17.66;100.00;94328.13;5040349;28;20041;-88
2022/05/22 02:43:43;;;;;;;8.63;2.28;;;;;;;17.54;100.00;94320.03;5018941;28;20061;-87
2022/05/22 02:46:14;;;;;;;8.85;2.47;;;;;;;17.53;100.00;94324.53;5040456;28;20033;-88
2022/05/22 02:48:40;;;;;;;12.80;2.40;;;;;;;17.64;100.00;94330.28;5024087;28;20035;-88
2022/05/22 02:51:06;;;;;;;12.98;2.90;;;;;;;17.58;100.00;94323.59;5023767;28;20123;-88
2022/05/22 02:53:32;;;;;;;7.78;2.00;;;;;;;17.64;100.00;94316.28;5023799;28;20031;-88
2022/05/22 02:56:09;;;;;;;8.35;2.40;;;;;;;17.52;100.00;94317.66;5040334;28;20439;-88
2022/05/22 02:58:35;;;;;;;7.72;1.88;;;;;;;17.21;100.00;94312.50;5023857;28;20021;-88
2022/05/22 03:01:00;;;;;;;7.55;2.42;;;;;;;17.22;100.00;94308.81;5040037;28;20338;-88
2022/05/22 03:03:25;;;;;;;8.35;2.13;;;;;;;17.23;100.00;94310.38;5039903;28;20079;-88
2022/05/22 03:08:35;;;;;;;6.57;2.35;;;;;;;17.30;100.00;94302.72;5042739;28;20472;-88
2022/05/22 03:11:05;;;;;;;13.63;2.60;;;;;;;17.29;100.00;94297.75;5057350;28;20020;-87
2022/05/22 03:13:30;;;;;;;3.50;2.28;;;;;;;17.25;100.00;94294.94;5023387;28;20032;-87
2022/05/22 03:15:56;;;;;;;9.77;2.88;;;;;;;17.14;100.00;94307.69;5039579;28;20037;-87
2022/05/22 03:18:21;;;;;;;6.30;2.17;;;;;;;17.20;100.00;94303.81;5023420;28;20071;-88
2022/05/22 03:20:47;;;;;;;8.00;2.35;;;;;;;17.36;100.00;94303.34;5023325;28;20035;-88
2022/05/22 03:23:13;;;;;;;8.60;2.33;;;;;;;17.35;100.00;94305.19;5023318;28;20035;-87
2022/05/22 03:25:42;;;;;;;6.70;2.42;;;;;;;17.20;100.00;94305.66;5023349;28;20139;-87
2022/05/22 03:28:08;;;;;;;6.00;2.60;;;;;;;17.39;100.00;94305.38;5039171;28;20032;-88
2022/05/22 03:30:34;;;;;;;6.72;2.25;;;;;;;17.34;100.00;94306.28;5056928;28;20025;-88
2022/05/22 03:36:21;;;;;;;8.13;2.15;;;;;;;17.15;100.00;94319.06;5056724;28;20036;-87
2022/05/22 03:38:47;;;;;;;5.10;2.40;;;;;;;17.23;100.00;94321.72;5023045;28;20406;-87
2022/05/22 03:41:13;;;;;;;11.45;2.65;;;;;;;17.28;100.00;94317.34;5038769;28;20035;-87
2022/05/22 03:43:38;;;;;;;10.32;2.67;;;;;;;17.44;100.00;94317.69;5039101;28;20426;-88
2022/05/22 03:46:04;;;;;;;6.32;2.55;;;;;;;17.28;100.00;94312.06;5023129;28;20388;-88
2022/05/22 03:48:29;;;;;;;7.85;2.75;;;;;;;17.23;100.00;94318.31;5022986;28;20032;-88
2022/05/22 03:50:55;;;;;;;9.43;2.70;;;;;;;17.39;100.00;94318.59;5039367;28;20384;-88
2022/05/22 03:53:20;;;;;;;5.05;2.38;;;;;;;17.51;100.00;94320.66;5023349;28;20123;-87
2022/05/22 03:55:47;;;;;;;5.88;2.63;;;;;;;17.36;100.00;94320.03;5038242;28;20024;-87
2022/05/22 03:58:13;;;;;;;11.15;2.70;;;;;;;17.45;100.00;94321.88;5023376;28;20033;-87
2022/05/22 04:00:39;;;;;;;8.45;2.50;;;;;;;17.59;100.00;94327.78;5038873;28;20037;-87
2022/05/22 04:03:04;;;;;;;6.10;2.55;;;;;;;17.56;100.00;94323.13;5056522;28;20036;-87
2022/05/22 04:05:30;;;;;;;5.68;2.78;;;;;;;17.42;100.00;94333.88;5022772;28;20032;-87
2022/05/22 04:07:55;;;;;;;12.98;2.40;;;;;;;17.44;100.00;94322.97;5039157;28;20426;-88
2022/05/22 04:10:21;;;;;;;6.03;2.72;;;;;;;17.15;100.00;94321.72;5039220;28;20021;-88
2022/05/22 04:12:46;;;;;;;11.43;2.72;;;;;;;16.85;100.00;94319.59;5039006;28;20418;-87
2022/05/22 04:15:18;;;;;;;7.68;2.47;;;;;;;17.21;100.00;94323.91;5022449;28;20036;-88
2022/05/22 04:17:44;;;;;;;10.90;3.58;;;;;;;16.65;100.00;94334.97;5026717;28;20105;-88
2022/05/22 04:20:11;;;;;;;9.00;3.20;;;;;;;16.57;100.00;94333.06;5043001;28;20041;-88
2022/05/22 04:25:11;;;;;;;10.65;2.90;;;;;;;16.85;100.00;94332.06;5060800;28;20471;-88
2022/05/22 04:25:22;;;;;;;11.52;2.80;;;;;;;16.96;100.00;94333.34;5045627;28;20082;-88
2022/05/22 04:27:48;;;;;;;6.47;2.80;;;;;;;17.24;100.00;94333.09;5043357;28;20337;-88
2022/05/22 04:30:18;;;;;;;9.25;3.05;;;;;;;17.36;100.00;94332.47;5042926;28;20025;-88
2022/05/22 04:32:48;;;;;;;13.60;2.70;;;;;;;17.30;100.00;94334.50;5060331;28;20032;-88
2022/05/22 04:35:14;;;;;;;11.35;2.55;;;;;;;17.57;100.00;94340.56;5060285;28;20025;-86
2022/05/22 04:37:42;;;;;;;11.05;2.90;;;;;;;17.74;100.00;94346.97;5026131;28;20029;-87
2022/05/22 04:40:09;;;;;;;8.55;2.80;;;;;;;17.73;100.00;94338.25;5026520;28;20120;-87
2022/05/22 04:42:36;;;;;;;9.70;2.75;;;;;;;17.91;100.00;94343.53;5042574;28;20067;-87
2022/05/22 04:45:15;;;;;;;;;;;;;;;;;;;;;
2022/05/22 04:47:44;;;;;;;9.32;3.33;;;;;;;17.85;100.00;94339.47;5024341;28;20027;-87
2022/05/22 04:50:11;;;;;;;11.00;3.17;;;;;;;17.94;100.00;94338.38;5023045;28;20059;-87
2022/05/22 04:52:37;;;;;;;7.40;3.55;;;;;;;17.85;100.00;94342.91;5006497;28;20040;-87
2022/05/22 04:55:03;;;;;;;7.13;3.47;;;;;;;18.08;100.00;94340.09;5022708;28;20033;-88
2022/05/22 04:57:29;;;;;;;10.50;3.10;;;;;;;18.22;100.00;94343.34;5006363;28;20120;-87
2022/05/22 04:59:54;;;;;;;8.15;3.20;;;;;;;17.96;100.00;94338.03;5006183;28;20125;-87
2022/05/22 05:02:23;;;;;;;5.70;3.25;;;;;;;17.87;100.00;94345.25;5022786;28;20033;-90
2022/05/22 05:04:48;;;;;;;10.45;3.33;;;;;;;18.14;100.00;94349.44;5022142;28;20034;-87
2022/05/22 05:07:14;;;;;;;8.30;3.08;;;;;;;18.42;100.00;94349.03;5022505;28;20029;-86
2022/05/22 05:09:41;;;;;;;15.10;3.00;;;;;;;18.26;100.00;94348.00;5006152;28;20040;-87
2022/05/22 05:12:07;;;;;;;9.88;3.13;;;;;;;18.55;100.00;94347.25;5005416;28;20088;-87
2022/05/22 05:14:35;;;;;;;7.53;2.90;;;;;;;18.79;100.00;94343.28;5005417;28;20064;-87
2022/05/22 05:17:01;;;;;;;11.15;3.42;;;;;;;18.13;100.00;94350.53;5022160;28;20346;-88
2022/05/22 05:19:26;;;;;;;9.15;2.97;;;;;;;18.01;100.00;94353.00;5022060;28;20032;-87
2022/05/22 05:21:55;;;;;;;6.60;2.78;;;;;;;17.98;100.00;94348.34;5041363;28;20036;-87
2022/05/22 05:24:21;;;;;;;7.28;3.05;;;;;;;18.07;100.00;94352.56;5041769;28;20078;-88
2022/05/22 05:26:50;;;;;;;7.35;3.30;;;;;;;18.26;100.00;94354.06;5041986;28;20505;-88
2022/05/22 05:29:16;;;;;;;11.43;3.38;;;;;;;18.50;100.00;94353.53;5025345;28;20036;-87
2022/05/22 05:31:42;;;;;;;7.00;3.00;;;;;;;18.42;100.00;94358.84;5041659;28;20025;-87
2022/05/22 05:34:07;;;;;;;5.95;2.92;;;;;;;18.99;100.00;94351.59;5025419;28;20552;-87
2022/05/22 05:36:33;;;;;;;8.68;2.97;;;;;;;19.25;100.00;94359.44;5041361;28;20036;-87
2022/05/22 05:38:58;;;;;;;8.55;3.17;;;;;;;19.55;100.00;94353.28;5024799;28;20028;-87
2022/05/22 05:41:24;;;;;;;9.05;2.90;;;;;;;19.25;100.00;94367.41;5024999;28;20343;-87
2022/05/22 05:43:49;;;;;;;8.98;2.75;;;;;;;19.57;100.00;94354.53;5024951;28;20029;-87
2022/05/22 05:46:15;;;;;;;7.00;3.25;;;;;;;19.83;100.00;94350.88;5025179;28;20051;-87
2022/05/22 05:48:40;;;;;;;6.90;2.63;;;;;;;20.13;100.00;94353.44;5025082;28;20047;-87
2022/05/22 05:51:06;;;;;;;8.45;3.17;;;;;;;20.03;100.00;94356.50;5041013;28;20334;-87
2022/05/22 05:53:31;;;;;;;11.77;3.60;;;;;;;19.89;100.00;94351.47;5024624;28;20029;-87
2022/05/22 05:55:59;;;;;;;9.40;3.05;;;;;;;19.73;100.00;94356.59;5024217;28;20472;-87
2022/05/22 05:58:24;;;;;;;8.25;3.20;;;;;;;19.80;100.00;94356.06;5041510;28;20116;-87
2022/05/22 06:00:50;;;;;;;8.00;3.05;;;;;;;20.41;100.00;94358.16;5041055;28;20115;-87
2022/05/22 06:03:17;;;;;;;10.32;3.08;;;;;;;20.71;100.00;94347.31;5041161;28;20036;-87
2022/05/22 06:05:43;;;;;;;8.60;2.80;;;;;;;20.94;100.00;94349.56;5041356;28;20338;-87
2022/05/22 06:08:08;;;;;;;7.72;2.92;;;;;;;20.85;100.00;94349.69;5024750;28;20029;-87
2022/05/22 06:10:37;;;;;;;8.52;2.75;;;;;;;21.22;100.00;94338.22;5041038;28;20021;-87
2022/05/22 06:13:03;;;;;;;6.63;2.60;;;;;;;21.18;100.00;94340.78;5041384;28;20029;-87
2022/05/22 06:15:28;;;;;;;8.98;3.38;;;;;;;20.99;100.00;94338.69;5040743;28;20419;-88
2022/05/22 06:17:56;;;;;;;6.40;2.70;;;;;;;20.83;100.00;94348.47;5024688;28;20032;-88
2022/05/22 06:20:22;;;;;;;6.35;2.70;;;;;;;21.49;100.00;94341.25;5041039;28;20029;-88
2022/05/22 06:22:48;;;;;;;5.57;2.42;;;;;;;21.61;100.00;94335.13;5040896;28;20444;-89
2022/05/22 06:25:17;;;;;;;5.28;2.60;;;;;;;21.73;100.00;94337.00;5024333;28;20028;-89
2022/05/22 06:27:43;;;;;;;12.02;3.35;;;;;;;21.64;100.00;94339.00;5041095;28;20110;-88
2022/05/22 06:30:12;;;;;;;7.38;2.67;;;;;;;21.83;100.00;94344.53;5040686;28;20033;-89
2022/05/22 06:32:39;;;;;;;3.92;2.72;;;;;;;21.99;100.00;94346.47;5041166;28;20392;-89
2022/05/22 06:35:06;;;;;;;6.35;2.78;;;;;;;22.17;100.00;94339.69;5024171;28;20025;-89
2022/05/22 06:37:31;;;;;;;9.77;2.70;;;;;;;22.26;100.00;94336.09;5040460;28;20143;-89
2022/05/22 06:39:57;;;;;;;10.85;3.17;;;;;;;22.31;100.00;94343.84;5022774;28;20020;-88
2022/05/22 06:42:32;;;;;;;6.53;2.17;;;;;;;22.38;100.00;94346.69;5024571;28;20033;-88
2022/05/22 06:45:04;;;;;;;5.10;2.60;;;;;;;21.89;100.00;94343.16;5024334;28;20045;-89
2022/05/22 06:47:30;;;;;;;9.38;2.70;;;;;;;22.35;100.00;94339.34;5040469;28;20032;-89
2022/05/22 06:49:57;;;;;;;8.68;3.00;;;;;;;22.08;100.00;94333.72;5024068;28;20036;-89
2022/05/22 06:52:23;;;;;;;9.10;2.83;;;;;;;21.94;100.00;94330.69;5024145;28;20044;-87
2022/05/22 06:54:49;;;;;;;10.85;3.05;;;;;;;21.84;100.00;94331.97;5040346;28;20028;-90
2022/05/22 06:57:17;;;;;;;6.82;2.78;;;;;;;22.32;100.00;94337.38;5023728;28;20043;-89
2022/05/22 06:59:44;;;;;;;8.15;2.75;;;;;;;21.99;100.00;94328.56;5040183;28;20090;-89
2022/05/22 07:02:09;;;;;;;12.43;2.83;;;;;;;21.84;100.00;94323.97;5024128;28;20060;-88
2022/05/22 07:04:35;;;;;;;5.75;2.60;;;;;;;21.87;100.00;94316.06;5007603;28;20052;-93
2022/05/22 07:07:00;;;;;;;4.45;2.40;;;;;;;22.78;100.00;94328.19;5014953;28;20068;-93
2022/05/22 07:09:28;;;;;;;8.65;2.90;;;;;;;22.55;100.00;94334.16;5020861;28;20029;-93
2022/05/22 07:11:59;;;;;;;9.70;2.60;;;;;;;22.71;100.00;94328.81;5020495;28;20057;-93
2022/05/22 07:14:27;;;;;;;10.90;3.10;;;;;;;23.00;100.00;94326.78;5005201;28;20026;-93
2022/05/22 07:16:53;;;;;;;6.95;2.80;;;;;;;23.24;100.00;94325.00;5004728;28;20410;-93
2022/05/22 07:19:19;;;;;;;9.02;2.67;;;;;;;23.28;100.00;94329.34;5020237;28;20044;-93
2022/05/22 07:21:45;;;;;;;8.77;2.70;;;;;;;23.41;100.00;94323.88;5004055;28;20029;-92
2022/05/22 07:24:11;;;;;;;5.28;2.38;;;;;;;23.20;100.00;94329.50;5020086;28;20083;-93
2022/05/22 07:26:36;;;;;;;9.93;3.22;;;;;;;23.07;100.00;94329.63;5016908;28;20028;-93
2022/05/22 07:29:02;;;;;;;7.28;2.63;;;;;;;23.46;100.00;94328.94;5059794;28;20028;-93
2022/05/22 07:31:29;;;;;;;5.70;2.70;;;;;;;23.43;100.00;94335.00;5043382;28;20029;-93
2022/05/22 07:33:56;;;;;;;13.80;3.13;;;;;;;23.92;100.00;94324.84;5060293;28;20028;-93
2022/05/22 07:36:21;;;;;;;6.43;2.92;;;;;;;24.26;100.00;94317.84;5042949;28;20082;-93
2022/05/22 07:38:47;;;;;;;5.43;2.33;;;;;;;24.48;100.00;94323.56;5043590;28;20032;-93
2022/05/22 07:41:14;;;;;;;7.20;2.65;;;;;;;24.60;100.00;94319.13;5059551;28;20029;-92
2022/05/22 07:43:40;;;;;;;3.10;2.33;;;;;;;24.74;100.00;94315.91;5077359;28;20033;-93
2022/05/22 07:46:06;;;;;;;7.68;3.20;;;;;;;24.59;100.00;94317.59;5042800;28;20105;-93
2022/05/22 07:48:32;;;;;;;6.88;2.85;;;;;;;24.60;100.00;94309.22;5043258;28;20157;-93
2022/05/22 07:51:02;;;;;;;9.98;2.75;;;;;;;24.04;100.00;94306.00;5059444;28;20025;-93
2022/05/22 07:53:28;;;;;;;8.50;2.88;;;;;;;24.52;100.00;94310.22;5042952;28;20054;-93
2022/05/22 07:56:02;;;;;;;8.40;3.20;;;;;;;24.65;100.00;94308.13;5043120;28;20028;-93
2022/05/22 07:58:28;;;;;;;7.50;2.90;;;;;;;24.74;100.00;94310.56;5044058;28;20047;-94
2022/05/22 08:00:59;;;;;;;8.23;3.17;;;;;;;24.94;100.00;94316.63;5043717;28;20049;-93
2022/05/22 08:03:28;;;;;;;14.07;3.35;;;;;;;25.40;100.00;94302.31;5043377;28;20437;-93
2022/05/22 08:05:55;;;;;;;6.75;3.30;;;;;;;25.40;100.00;94305.00;5059958;28;20349;-93
2022/05/22 08:08:31;;;;;;;;;;;;;;;;;;;;;
2022/05/22 08:11:05;;;;;;;6.53;2.97;;;;;;;27.01;100.00;94300.03;5060849;28;20083;-93
2022/05/22 08:13:44;;;;;;;;;;;;;;;;;;;;;
2022/05/22 08:16:10;;;;;;;5.28;3.10;;;;;;;27.27;94.06;94299.00;5061227;28;20039;-94
2022/05/22 08:18:35;;;;;;;5.97;3.20;;;;;;;27.37;93.30;94292.94;5043226;28;20123;-93
2022/05/22 08:21:03;;;;;;;7.00;3.10;;;;;;;27.27;91.00;94282.88;5058945;28;20028;-94
2022/05/22 08:23:29;;;;;;;10.60;3.30;;;;;;;26.49;94.26;94276.59;5059784;28;20475;-94
2022/05/22 08:25:56;;;;;;;18.67;3.47;;;;;;;27.49;91.36;94269.53;5059317;28;20024;-92
2022/05/22 08:28:22;;;;;;;9.57;3.33;;;;;;;26.68;100.00;94279.06;5059721;28;20028;-93
2022/05/22 08:30:47;;;;;;;11.05;3.03;;;;;;;27.23;92.52;94282.09;5043092;28;20025;-94
2022/05/22 08:33:14;;;;;;;10.30;3.47;;;;;;;26.33;93.12;94274.94;5059377;28;20422;-93
2022/05/22 08:35:41;;;;;;;6.80;3.05;;;;;;;25.54;100.00;94274.91;5042598;28;20025;-92
2022/05/22 08:38:07;;;;;;;9.88;3.28;;;;;;;25.83;100.00;94277.91;5043750;28;20028;-94
2022/05/22 08:41:00;;;;;;;6.50;2.83;;;;;;;24.83;100.00;94276.28;5042737;28;20035;-94
2022/05/22 08:43:33;;;;;;;9.67;2.90;;;;;;;25.51;100.00;94281.78;5059307;28;20028;-94
2022/05/22 08:46:06;;;;;;;7.85;3.25;;;;;;;25.73;100.00;94283.94;5042970;28;20040;-94
2022/05/22 08:48:38;;;;;;;6.07;3.28;;;;;;;26.23;100.00;94281.78;5058376;28;20096;-93
2022/05/22 08:51:10;;;;;;;8.07;4.13;;;;;;;26.13;100.00;94277.03;5042991;28;20372;-93
2022/05/22 08:53:44;;;;;;;7.40;2.80;;;;;;;26.49;100.00;94268.56;5059415;28;20032;-94
2022/05/22 08:59:03;;;;;;;8.88;3.80;;;;;;;26.29;100.00;94263.41;5038050;28;20091;-93
2022/05/22 09:01:39;;;;;;;8.48;4.00;;;;;;;26.56;100.00;94263.25;5019661;28;20056;-94
2022/05/22 09:04:38;;;;;;;10.25;3.70;;;;;;;26.06;100.00;94261.66;5007621;28;20411;-93
2022/05/22 09:07:20;;;;;;;13.80;3.85;;;;;;;26.21;100.00;94259.13;5006040;28;20041;-87
2022/05/22 09:10:08;;;;;;;8.45;3.40;;;;;;;25.95;100.00;94255.41;5006390;28;20032;-87
2022/05/22 09:12:55;;;;;;;10.80;3.45;;;;;;;26.28;100.00;94255.72;5006413;28;20030;-86
2022/05/22 09:15:23;;;;;;;105.53;63.28;;;;;;;26.02;100.00;94249.31;5039624;28;20036;-86
2022/05/22 09:18:17;;;;;;;;;;;;;;;;;;;;;
2022/05/22 09:21:04;;;;;;;14.45;4.70;;;;;;;26.76;100.00;94253.03;5023213;28;20039;-86
2022/05/22 09:23:31;;;;;;;16.83;4.32;;;;;;;26.47;100.00;94254.72;5021952;28;20029;-86
2022/05/22 09:26:10;;;;;;;24.90;4.30;;;;;;;26.00;100.00;94255.09;5021786;28;20084;-86
2022/05/22 09:28:38;;;;;;;18.13;3.95;;;;;;;26.43;100.00;94260.06;5005949;28;20029;-86
2022/05/22 09:31:16;;;;;;;6.78;3.72;;;;;;;26.13;100.00;94255.56;5043271;28;20021;-86
2022/05/22 09:34:06;;;;;;;13.02;3.90;;;;;;;26.25;100.00;94263.38;5041303;28;20445;-85
2022/05/22 09:36:39;;;;;;;8.02;4.28;;;;;;;26.08;100.00;94263.97;5024985;28;20032;-86
2022/05/22 09:39:12;;;;;;;5.95;2.97;;;;;;;26.38;100.00;94261.16;5025447;28;20028;-85
2022/05/22 09:42:13;;;;;;;17.48;4.38;;;;;;;26.66;100.00;94264.47;5024826;28;20029;-85
2022/05/22 09:45:03;;;;;;;9.30;4.20;;;;;;;26.82;100.00;94266.84;5042211;28;20035;-86
2022/05/22 09:47:56;;;;;;;19.98;3.83;;;;;;;26.94;100.00;94263.13;5058906;28;20078;-86
2022/05/22 09:50:30;;;;;;;11.40;4.45;;;;;;;27.31;100.00;94258.69;5041179;28;20052;-86
2022/05/22 09:53:13;;;;;;;11.50;4.05;;;;;;;27.21;100.00;94260.94;5024758;28;20039;-86
2022/05/22 09:55:45;;;;;;;14.73;4.40;;;;;;;27.34;100.00;94256.03;5041801;28;20424;-86
2022/05/22 09:58:48;;;;;;;13.95;4.70;;;;;;;27.90;100.00;94258.53;5041371;28;20413;-86
2022/05/22 10:01:24;;;;;;;11.95;4.32;;;;;;;27.32;100.00;94254.84;5038489;28;20048;-85
2022/05/22 10:04:14;;;;;;;19.20;4.85;;;;;;;27.43;100.00;94252.19;5005026;28;20037;-85
2022/05/22 10:06:58;;;;;;;15.20;4.32;;;;;;;26.47;100.00;94252.81;5021021;28;20438;-86
2022/05/22 10:10:00;;;;;;;13.50;4.88;;;;;;;25.97;100.00;94253.91;5038574;28;20028;-86
2022/05/22 10:12:53;;;;;;;23.08;4.85;;;;;;;27.15;100.00;94256.31;5038592;28;20436;-86
2022/05/22 10:15:56;;;;;;;10.63;4.57;;;;;;;27.46;100.00;94257.59;5020682;28;20029;-85
2022/05/22 10:18:36;;;;;;;10.38;4.75;;;;;;;27.97;100.00;94248.91;5020872;28;20315;-86
2022/05/22 10:21:16;;;;;;;10.77;4.53;;;;;;;27.91;100.00;94241.22;5020955;28;20061;-86
2022/05/22 10:24:09;;;;;;;10.38;4.57;;;;;;;27.23;100.00;94247.91;5038796;28;20025;-86
2022/05/22 10:27:00;;;;;;;15.45;5.88;;;;;;;27.15;100.00;94240.97;5058558;28;20111;-86
2022/05/22 10:30:01;;;;;;;13.70;5.22;;;;;;;27.48;100.00;94251.84;5024129;28;20036;-86
2022/05/22 10:32:41;;;;;;;8.80;4.70;;;;;;;28.11;100.00;94240.84;5040380;28;20036;-85
2022/05/22 10:35:14;;;;;;;14.43;4.78;;;;;;;27.60;100.00;94246.13;5040572;28;20155;-85
2022/05/22 10:37:47;;;;;;;15.23;5.00;;;;;;;27.58;100.00;94245.75;5040620;28;20473;-85
2022/05/22 10:40:17;;;;;;;18.52;5.50;;;;;;;26.71;100.00;94247.97;5040070;28;20354;-85
2022/05/22 10:42:51;;;;;;;9.23;4.30;;;;;;;26.98;100.00;94244.34;5057861;28;20033;-85
2022/05/22 10:45:36;;;;;;;9.85;4.90;;;;;;;27.80;100.00;94240.44;5026902;28;20025;-85
2022/05/22 10:48:24;;;;;;;9.95;5.03;;;;;;;27.22;100.00;94234.84;5040344;28;20037;-86
2022/05/22 10:50:54;;;;;;;11.93;4.90;;;;;;;27.79;100.00;94236.19;5024389;28;20036;-86
2022/05/22 10:53:30;;;;;;;9.98;5.50;;;;;;;27.22;100.00;94232.16;5040037;28;20438;-86
2022/05/22 10:56:26;;;;;;;13.05;5.50;;;;;;;26.81;100.00;94233.84;5023568;28;20032;-86
2022/05/22 10:58:56;;;;;;;11.85;5.32;;;;;;;26.63;100.00;94232.97;5015304;28;20087;-86
2022/05/22 11:01:27;;;;;;;12.48;6.03;;;;;;;26.61;100.00;94238.72;5039877;28;20354;-85
2022/05/22 11:04:12;;;;;;;12.02;5.22;;;;;;;26.13;100.00;94239.47;5023282;28;20029;-86
2022/05/22 11:06:54;;;;;;;14.35;5.70;;;;;;;26.22;100.00;94239.19;5023616;28;20496;-86
2022/05/22 11:09:31;;;;;;;25.75;5.70;;;;;;;26.42;100.00;94245.09;5039754;28;20032;-86
2022/05/22 11:12:27;;;;;;;9.95;5.15;;;;;;;27.15;100.00;94254.41;5007601;28;20040;-86
2022/05/22 11:15:16;;;;;;;17.70;5.70;;;;;;;27.26;100.00;94241.00;5021766;28;20047;-86
2022/05/22 11:17:42;;;;;;;12.75;5.55;;;;;;;26.42;100.00;94236.28;5039778;28;20032;-86
2022/05/22 11:20:16;;;;;;;18.27;5.80;;;;;;;26.00;100.00;94238.19;5039369;28;20033;-86
2022/05/22 11:23:09;;;;;;;14.43;5.60;;;;;;;26.30;100.00;94237.31;5019067;28;20048;-86
2022/05/22 11:25:55;;;;;;;19.42;6.57;;;;;;;26.72;100.00;94241.47;5019322;28;20025;-86
2022/05/22 11:28:27;;;;;;;15.88;5.35;;;;;;;27.31;100.00;94246.00;5050817;28;20052;-87
2022/05/22 11:31:11;;;;;;;11.55;5.55;;;;;;;27.00;100.00;94239.34;5039503;28;20025;-86
2022/05/22 11:34:00;;;;;;;16.92;6.70;;;;;;;26.65;100.00;94233.38;5038919;28;20029;-85
2022/05/22 11:36:57;;;;;;;15.60;5.53;;;;;;;26.96;100.00;94239.31;4989531;28;20048;-86
2022/05/22 11:39:33;;;;;;;12.70;6.18;;;;;;;26.75;100.00;94239.94;5039794;28;20414;-86
2022/05/22 11:42:26;;;;;;;15.30;6.15;;;;;;;26.99;100.00;94238.56;5039153;28;20025;-86
2022/05/22 11:44:55;;;;;;;10.32;5.72;;;;;;;27.32;100.00;94228.72;5038984;28;20025;-86
2022/05/22 11:47:24;;;;;;;16.40;5.10;;;;;;;27.79;100.00;94228.88;5039281;28;20036;-87
2022/05/22 11:50:07;;;;;;;11.73;5.07;;;;;;;28.25;100.00;94231.28;5022827;28;20098;-86
2022/05/22 11:53:03;;;;;;;12.02;6.05;;;;;;;28.44;100.00;94232.81;5055974;28;20315;-86
2022/05/22 11:55:50;;;;;;;10.30;5.13;;;;;;;28.06;100.00;94225.84;5018984;28;20025;-85